Beta Version
تعنى (نشرة براءات الاختراع) التي يصدرها مكتب براءات الاختراع لمجلس التعاون لدول الخليج العربية بنشر الإشهارات المنصوص عليها في نظام براءات الاختراع لدول مجلس التعاون ولائحته التنفيذيه والتي تمثلها البيانات والمعلومات بشأن مايطرا على طلبات براءات الاختراع وبراءات الاختراع لدى المكتب خلال فترة النشرة ليغطي أنشطة المكتب المتعلقة بالطلبات والبراءات خلال هذه الفترة




Granted Patents


NoDepositNoTitlePatent NoGrant DateDocument
1 م ت خ/ب/2007/9634 OIL WELL STAGE-CEMENTING METAL PLATE GC0004594 2017/01/01 HTML
2 م ت خ/ب/2008/12359 SEMI-CONTINUOUS INTEGRATED PROCESS FOR THE PRODUCTION OF HIGH IMPACT VINYL AROMATIC COPOLYMERS BY ANIONIC/RADICAL POLYMERIZATION IN SEQUENCE. GC0004595 2017/01/01 HTML
3 GC 2015-29223 Irrigation Water Saver GC0004596 2017/01/01 HTML
4 GC 2013-25144 POLYCRYSTALLINE SILICON CHUNKS AND METHOD FOR PRODUCING THEM GC0004597 2017/01/02 HTML
5 م ت خ/ب/2009/13375 LOW NOx BURNER GC0004598 2017/01/03 HTML
6 GC 2012-21510 APPARATUS AND METHOD FOR PRODUCING CATALYST, AND METHOD FOR PRODUCING UNSATURATED ACID OR UNSATURATED NITRILE GC0004599 2017/01/03 HTML
7 م ت خ/ب/2008/10181 A PROCESS FOR PRODUCING DIALKYL TIN DIALKOXIDES GC0004600 2017/01/03 HTML
8 م ت خ/ب/2008/11623 ISOCYANATE PRODUCTION PROCESS USING COMPOSITION CONTAINING CARBAMIC ACID ESTER AND AROMATIC HYDROXY COMPOUND, AND COMPOSITION FOR TRANSFER AND STORAGE OF CARBAMIC ACID ESTER GC0004601 2017/01/03 HTML
9 م ت خ/ب/2009/14385 PURIFICATION METHOD OF CRUDE PROPANE AND/OR CRUDE PROPYLENE AND PURIFICATION DEVICE THEREOF GC0004602 2017/01/03 HTML
10 GC 2013-24056 PIPE HANDLING APPARATUS GC0004603 2017/01/03 HTML
11 GC 2011-19774 SUBSTITUTED SODIUM 1H-PYRAZOL-5-OLATE GC0004604 2017/01/03 HTML
12 GC 2010-15387 PROCESS FOR ONCE-THROUGH CONVERSION OF A FEED COMPRISING OLEFINS CONTAINING FOUR AND/OR FIVE CARBON ATOMS, FOR THE PRODUCTION OF PROPYLENE GC0004605 2017/01/03 HTML
13 GC 2012-21749 METHOD FOR PRODUCING POLYETHER CARBONATE POLYOLS GC0004606 2017/01/03 HTML
14 م ت خ/ب/2007/7852 IMPROVED TRANSFER SYSTEM FROM FIRST TO SECOND LOOP OM DOUBLE LOOP REACTORS GC0004607 2017/01/03 HTML
15 م ت خ/ب/2008/11491 CATALYST FOR PRODUCING CARBOXYLIC ACID ESTERS, PROCESS FOR PRODUCING SAME AND PROCESS FOR PRODUCING CARBOXYLIC ACID ESTERS GC0004608 2017/01/03 HTML
16 م ت خ/ب/2009/13168 PROCESS FOR PRODUCING ISOCYANATES AND AROMATIC HYDROXY COMPOUNDS GC0004609 2017/01/03 HTML
17 GC 2011-19062 METHOD FOR PRODUCING ARYLOXYTITANIUM COMPOSITION AND ARYLOXYTITANIUM COMPOSITION GC0004610 2017/01/03 HTML
18 GC 2011-18556 5,6-DIHYDRO-2H-[1,4]OXAZIN-3-YL-AMINE DERIVATIVES USEFUL AS INHIBITORS OF BETA-SECRETASE BACE GC0004611 2017/01/03 HTML
19 م ت خ/ب/2007/9328 AN ARTIFICIAL GRASS FIBRE AS WELL AS AN ARTIFICIAL LAWN AT LEAST COMPRISING SUCH AN ARTIFICIAL GRASS FIBRE GC0004612 2017/01/03 HTML
20 GC 2010-16717 GAS DEACIDIZING METHOD USING AN ABSORBENT SOLUTION WITH COS REMOVAL THROUGH HYDROLYSIS GC0004613 2017/01/03 HTML
21 م ت خ/ب/2009/14910 NEW PROCESS FOR RECOVERING CO2 FROM REGENERATION FLUE GAS COMING FROM A CATALYTIC CRACKING UNIT” GC0004614 2017/01/03 HTML
22 GC 2010-15637 PROCESS AND APPARATUS FOR SIMULATED MOVING BED SEPARATION COMPRISING BYPASS LINES IN EVERY OTHER BED AND WITH A MODULATED BYPASS FLUID FLOW RATE GC0004615 2017/01/03 HTML
23 GC 2010-16556 APPARATUS FOR TREATING LIQUID CONTAINING IMPURITIES GC0004616 2017/01/03 HTML
24 م ت خ/ب/2009/14481 CASTING EQUIPMENT FOR THE CASTING OF SHEET INGOT GC0004617 2017/01/04 HTML
25 GC 2010-17369 METHOD FOR MONITORING THE LEVEL OF AN ETHYLENE POLYMERIZATION CATALYST SLURRY GC0004619 2017/01/05 HTML
26 GC 2012-21593 ELEVATOR GOVERNOR DEVICE GC0004621 2017/01/05 HTML
27 GC 2012-21883 SELECTIVE SERIES-FLOW HYDROPROCESSING SYSTEM AND METHOD GC0004622 2017/01/05 HTML
28 GC 2012-22670 Process for preparing grafts for pearl culture GC0004623 2017/01/05 HTML
29 GC 2012-20324 GEOLOGICAL MONITORING CONSOLE GC0004624 2017/01/08 HTML
30 GC 2011-18341 DIGITAL FREQUENCY CHANNELIZER GC0004625 2017/01/08 HTML
31 م ت خ/ب/2009/14645 PROTECTIVE SHELTER GC0004626 2017/01/08 HTML
32 GC 2012-23093 METHOD OF SEPARATING CARBON DIOXIDE FROM LIQUID ACID GAS STREAMS GC0004627 2017/01/09 HTML
33 GC 2012-23146 QUINOLINE DERIVATIVES AS PDE10A ENZYME INHIBITORS GC0004628 2017/01/09 HTML
34 GC 2012-20479 METHOD OF MITIGATING STRATIFICATION OF TEMPERATURE WITHIN THE INTERIOR OF A MOBILE HEATED CABINET, AND MOBILE HEATED CABINET USING SAME GC0004629 2017/01/09 HTML
35 GC 2013-24657 PROCESS FOR THE TREATMENT OF LIQUEFIED HYDROCARBON GAS USING 3-AMINOPROPANE-1,2-DIOL COMPOUNDS GC0004630 2017/01/09 HTML
36 GC 2011-18886 METHODS FOR STIMULATING MULTI-ZONE WELLS GC0004631 2017/01/09 HTML
37 GC 2012-20796 LOW EMISSION TURBINE SYSTEMS INCORPORATING INLET COMPRESSOR OXIDANT CONTROL APPARATUS AND METHODS RELATED THERETO GC0004632 2017/01/09 HTML
38 GC 2013-23298 GABION DEPLOYMENT PLATFORM GC0004633 2017/01/11 HTML
39 GC 2012-22279 SEAWATER INFILTRATION METHOD AND WATER INFILTRATION INTAKE UNIT GC0004634 2017/01/11 HTML
40 GC 2011-18928 METHOD FOR PRODUCING POLYETHYLENE GC0004635 2017/01/11 HTML
41 م ت خ/ب/2008/12397 COMPOSITES OF INORGANIC MICROPARTICLES HAVING A PHOSPHATED SURFACE AND ALKALINE EARTH CARBONATE NANOPARTICLES GC0004636 2017/01/12 HTML
42 GC 2011-18024 BISPECIFIC, BIVALENT ANTI-VEGF/ANTI-ANG-2 ANTIBODIES GC0004637 2017/01/12 HTML
43 م ت خ/ب/2009/14433 BISPECIFIC ANTI-VEGF/ANTI-ANG-2 ANTIBODIES GC0004638 2017/01/12 HTML
44 GC 2012-22446 ETHYNYL DERIVATIVES GC0004639 2017/01/12 HTML
45 GC 2012-21054 SOAP DISPENSER HAVING FLUID LEVEL SENSOR GC0004640 2017/01/12 HTML
46 م ت خ/ب/2008/10914 REMOVAL OF FINE PARTICLES FROM A FISCHER TROPSCH STREAM‎ GC0004641 2017/01/12 HTML
47 GC 2010-15990 SYSTEM AND METHOD FOR TEMPERATURE DATA ACQUISITION GC0004643 2017/01/15 HTML
48 GC 2010-16575 COMPOUNDS AND COMPOSITIONS AS PROTEIN KINASE INHIBITORS GC0004644 2017/01/16 HTML
49 GC 2010-15241 MULTISTAGE QUICK ASSEMBLY AND CONFIGURATION PUMP GC0004645 2017/01/16 HTML
50 GC 2010-15159 AXIAL FLOW CONTROL VALVES HAVING AN INTERNAL ACTUATOR GC0004646 2017/01/16 HTML
51 م ت خ/ب/2007/7823 IN-LINE SALT REFINING OF MOLTEN ALUMINIUM ALLOYS GC0004647 2017/01/16 HTML
52 م ت خ/ب/2009/14845 USER INTERFACE FOR A PORTABLE COMMUNICATOR FOR USE IN A PROCESS CONTROL ENVIRONMENT GC0004648 2017/01/16 HTML
53 م ت خ/ب/2008/10586 METHOD OF PRODUCING FERTILIZER OUT OF SLUDGE GC0004649 2017/01/16 HTML
54 GC 2010-15628 PROCESS FOR THE CO-PRODUCTION OF A STREAM OF A FATTY ALCOHOL HAVING A FIRST CARBON CHAIN LENGTH AND A STREAM OF FATTY ALCOHOL HAVING A SECOND CARBON LENGTH GC0004651 2017/01/16 HTML
55 GC 2010-16368 ELECTRODE FOR ELECTROLYTIC APPLICATIONS GC0004652 2017/01/16 HTML
56 GC 2012-22292 CATALYSTS GC0004653 2017/01/16 HTML
57 م ت خ/ب/2009/14554 PACKING FOLLOWERS FOR USE WITH VALVES GC0004654 2017/01/16 HTML
58 م ت خ/ب/2004/3535 REMOVAL OF OXYGENATE FROM AN OLEFIN STREAM GC0004655 2017/01/16 HTML
59 GC 2011-17882 METHOD FOR PRODUCING SYNTHESIS GAS GC0004656 2017/01/16 HTML
60 م ت خ/ب/2009/13364 METHODS FOR PREPARING CATALYST SYSTEMS GC0004657 2017/01/16 HTML
61 GC 2011-18980 SYSTEM AND METHOD FOR EXHAUST GAS EXTRACTION GC0004658 2017/01/17 HTML
62 م ت خ/ب/2007/9194 EFFERVESCENT NOZZLE FOR CATALYST INJECTION GC0004660 2017/01/17 HTML
63 GC 2012-21431 IN-LINE DEVICE FOR GAS-LIQUID CONTACTING, AND GAS PROCESSING FACILITY EMPLOYING CO-CURRENT CONTACTORS GC0004661 2017/01/17 HTML
64 م ت خ/ب/2007/8674 DUPLEX STAINLESS STEEL GC0004662 2017/01/17 HTML
65 م ت خ/ب/2009/15016 PROCESS FOR THE SYNTHESIS OF IVABRADINE AND ADDITION SALTS THEREOF WITH A PHARMACEUTICALLY ACCEPTABLE ACID GC0004663 2017/01/17 HTML
66 م ت خ/ب/2005/27512 METHODS OF PREPARATION OF AN OLEFIN OLIGOMERIZATION CATALYST GC0004664 2017/01/17 HTML
67 م ت خ/ب/2008/9902 CATALYST FOR OXIDATION OF SATURATED AND UNSATURATED ALDEHYDES TO UNSATURATED CARBOXYLIC ACID,METHOD OF MAKING AND METHOD OF USING THEREOF GC0004665 2017/01/17 HTML
68 م ت خ/ب/2009/13534 STRIPPABLE SEMICONDUCTIVE COMPOSITIONS COMPRISING LOW MELT TEMPERATURE POLYOLEFIN GC0004666 2017/01/17 HTML
69 GC 2010-16131 LOWER OLEFINS PRODUCING CATALYST AND METHOD FOR PRODUCING LOWER OLEFINS USING SAME GC0004667 2017/01/17 HTML
70 GC 2011-17879 PREPARING POLYETHER ALCOHOLS GC0004668 2017/01/17 HTML
71 GC 2012-21071 WEIGHTING AGENT FOR USE IN SUBTERRANEAN WELLS GC0004669 2017/01/17 HTML
72 GC 2012-22074 SEA-WATER DESALINATION SYSTEM AND SEA-WATER DESALINATION METHOD GC0004670 2017/01/17 HTML
73 GC 2012-22575 HIGH EFFICIENCY IMPELLER GC0004672 2017/01/17 HTML
74 GC 2013-24098 APPARATUS AND METHOD FOR DEEP TRANSIENT RESISTIVITY MEASUREMENT GC0004673 2017/01/17 HTML
75 م ت خ/ب/2009/14855 METHOD AND SYSTEM OF DETERMINING A VALUE INDICATIVE OF GAS SATURATION OF A FORMATION GC0004674 2017/01/17 HTML
76 م ت خ/ب/2009/13809 CROSSLINKABLE POLYMER COMPOSITION GC0004675 2017/01/17 HTML
77 م ت خ/ب/2009/14517 CRYSTALLINE SALTS OF ISOBUTYRIC ACID 1R*,2R*,4R*-2-2-{[3-4,7-DIMETHOXY-1H-BENZOIMIDAZOL-2-YL-PROPYL]-METHYL-AMINO}-ETHYL-5-PHENYL-BICYCLO[2.2.2]OCT-5-EN-2-YL ESTER GC0004676 2017/01/17 HTML
78 GC 2011-19248 METHOD OF FORMING POLYMER NANOCOMPOSITE GC0004678 2017/01/17 HTML
79 GC 2012-20522 MULTIPHASE METER TO PROVIDE DATA FOR PRODUCTION MANAGEMENT GC0004679 2017/01/17 HTML
80 GC 2012-21845 USE OF A POLYOLEFIN COMPOSITION FOR PIPES AND FITTINGS WITH INCREASED RESISTANCE TO CHLORINE DIOXIDE GC0004680 2017/01/17 HTML
81 GC 2012-22120 PROCESS FOR PREPARING EDDN AND/OR EDMN BY REACTING EDFA AND/OR EDMFA WITH ‎HCN GC0004681 2017/01/17 HTML
82 GC 2012-21410 PROCESS FOR CONTINUOUSLY PRODUCING WATER-ABSORBING POLYMER PARTICLES GC0004682 2017/01/17 HTML
83 م ت خ/ب/2008/12475 LSX TYPE ZEOLITE HAVING A CONTROLLED PARTICLE SIZE DISTRIBUTION GC0004684 2017/01/17 HTML
84 GC 2011-17656 COMBINED SWEPT-CARRIER AND SWEPT-MODULATION FREQUENCY OPTICAL FREQUENCY DOMAIN REFLECTOMETRY GC0004685 2017/01/17 HTML
85 GC 2010-15123 METHOD AND APPARATUS FOR PRODUCING STRETCHABLE SHEET GC0004686 2017/01/17 HTML
86 GC 2010-16637 APPARATUS FOR PROCESSING WASTE MATERIAL GC0004687 2017/01/17 HTML
87 GC 2010-15165 DELAYED-RELEASE GLUCOCORTICOID TREATMENT OF ASTHMA GC0004688 2017/01/18 HTML
88 م ت خ/ب/2008/11511 PROCESS FOR PERFORMING AN ENDOTHERMIC EQUILIBRIUM REACTION GC0004689 2017/01/18 HTML
89 م ت خ/ب/2009/13967 ETHYLENE OLIGOMERIZATION CATALYST AND USE THEREOF GC0004690 2017/01/18 HTML
90 GC 2011-17672 CONTAINER FOR FOODSTUFF MADE FROM AN ALUMINIUM-FREE PLANAR COMPOSITE WITH A COVERED HOLE AS PART OF A CLOSURE SYSTEM GC0004691 2017/01/18 HTML
91 GC 2012-23181 PROCESS FOR PURIFYING A RECYCLE STREAM FROM A 1,3-BUTADIENE PROCESSING PLANT GC0004695 2017/01/18 HTML
92 م ت خ/ب/2008/11622 PROCESS FOR PRODUCING WATER-ABSORBING POLYMER PARTICLES BY POLYMERIZING DROPLETS OF A MONOMER SOLUTION GC0004696 2017/01/18 HTML
93 GC 2013-24160 PYRAZOLE COMPOUNDS GC0004697 2017/01/18 HTML
94 م ت خ/ب/2009/14672 PROCESS FOR OBTAINING NEOPENTYL GLYCOL BY CRACKING OF HIGH BOILERS FORMED IN THE PRODUCTION PROCESS GC0004698 2017/01/18 HTML
95 م ت خ/ب/2009/14045 FLUID-ABSORBENT ARTICLES GC0004699 2017/01/18 HTML
96 GC 2011-18878 PROCESS FOR PREPARING ACETYLENE BY THE SACHSSE-BARTHOLOME PROCESS GC0004700 2017/01/18 HTML
97 GC 2011-19655 PROCESS AND APPARATUS FOR PREPARING ACETYLENE AND SYNTHESIS GAS GC0004702 2017/01/18 HTML
98 GC 2012-20744 HYDROCARBON PRODUCTION APPARATUS AND HYDROCARBON PRODUCTION PROCESS GC0004703 2017/01/18 HTML
99 GC 2012-21848 POLYOLEFIN COMPOSITION WITH EXCELLENT COLOUR AND THERMAL STABILITY AS WELL AS OXIDATION RESISTANCE FOR PIPES GC0004704 2017/01/18 HTML
100 GC 2011-18668 IMPLEMENTING SUBSTATION AUTOMATION LOAD TRANSFER FUNCTION GC0004705 2017/01/18 HTML
101 م ت خ/ب/2008/11039 PROCESS FOR CHARGING A REACTOR WITH A FIXED CATALYST BED WHICH COMPRISES AT LEAST ANNULAR SHAPED CATALYST BODIES K GC0004706 2017/01/18 HTML
102 GC 2013-24035 SURFACTANT COMPOUNDS, COMPOSITIONS COMPRISING THEM, METHOD OF SYNTHESIS AND USES, IN PARTICULAR FOR ENHANCED OIL RECOVERY GC0004707 2017/01/18 HTML
103 م ت خ/ب/2009/13057 SYSTEM AND METHOD FOR SELECTIVELY COMMUNICATABLE HYDRAULIC NIPPLES GC0004708 2017/01/18 HTML
104 GC 2011-18073 PRECIPITATION PREVENTION IN PRODUCED WATER CONTAINING HYDRATE INHIBITORS INJECTED DOWNHOLE GC0004709 2017/01/18 HTML
105 GC 2010-15902 HYDROPHOBICALLY ASSOCIATING COPOLYMERS GC0004710 2017/01/18 HTML
106 GC 2010-15603 APPARATUS AND METHOD FOR MANUFACTURING AN ABSORBENT ARTICLE GC0004711 2017/01/18 HTML
107 GC 2010-16557 METHOD AND COMPUTER PROGRAM PRODUCT FOR TREATING LIQUID CONTAINING IMPURITIES GC0004712 2017/01/18 HTML
108 م ت خ/ب/2009/14948 DRAG REDUCING POLYMERS FOR LOW MOLECULAR WEIGHT LIQUIDS APPLICATIONS GC0004713 2017/01/18 HTML
109 م ت خ/ب/2009/14301 PROCESS FOR OBTAINING COMBUSTIBLES AND FUELS, RESPECTIVELY GC0004714 2017/01/18 HTML
110 GC 2010-15163 PLANT FOR THE TREATMENT AND DISPOSAL OF WASTE WATER CONTAINING SALTS AND OIL AND METHOD FOR THE TREATMENT AND DISPOSAL OF WASTE WATER CONTAINING SALTS AND OIL GC0004715 2017/01/18 HTML
111 م ت خ/ب/2009/13765 6-SUBSTITUTED PHENOXYCHROMAN CARBOXYLIC ACID DERIVATIVES GC0004716 2017/01/19 HTML
112 GC 2011-18467 REACTOR WITH REACTOR HEAD AND INTEGRATED VALVE GC0004717 2017/01/19 HTML
113 م ت خ/ب/2007/8572 POLYMERS MADE WITH METALLOCENE CATALYSTS, FOR USE IN ROTOMOLDING AND INJECTION MOLDING PRODUCTS GC0004718 2017/01/19 HTML
114 م ت خ/ب/2006/5890 ZEOLITE CATALYST AND METHOD GC0004719 2017/01/19 HTML
115 م ت خ/ب/2009/12755 METHOD FOR PREPARING LINEAR ALPHA-OLEFINS GC0004721 2017/01/19 HTML
116 GC 2010-15579 DKK-1 ANTIBODIES GC0004722 2017/01/19 HTML
117 GC 2011-17925 OIL-BASED DRILLING FLUID RECOVERY AND REUSE GC0004723 2017/01/19 HTML
118 GC 2012-21470 FLUIDIZED BED REACTOR AND PROCESS FOR PRODUCING OLEFINS FROM OXYGENATES GC0004724 2017/01/19 HTML
119 GC 2013-25547 RESISTIVE MEMORY DEVICE FABRICATED FROM SINGLE POLYMER MATERIAL GC0004725 2017/01/19 HTML
120 م ت خ/ب/2006/6041 ZEOLITE CATALYST AND METHOD OF PREPARING AND USE OF ZEOLITE CATALYST GC0004726 2017/01/19 HTML
121 م ت خ/ب/2008/11628 CARRIER FOR OLEFIN OXIDE CATALYST GC0004727 2017/01/19 HTML
122 م ت خ/ب/2009/13301 A PROCESS FOR THE PRODUCTION OF HYDROCARBONS INCLUDING OLEFINS FROM SYNTHESIS GAS GC0004728 2017/01/19 HTML
123 GC 2010-15632 ETHYLENE POLYMER GC0004729 2017/01/19 HTML
124 GC 2011-17933 PROCESS FOR PREPARING POLYETHER POLYOLS GC0004730 2017/01/19 HTML
125 GC 2013-25080 PROCESS FOR PREPARING OLEFINS BY THERMAL STEAMCRACKING IN CRACKING FURNACES GC0004731 2017/01/19 HTML
126 GC 2014-28157 THE USE OF HENNA LAWSONIA INERMIS LEAVES TO CUREHEMORRHOIDS GC0004732 2017/01/19 HTML
127 GC 2010-16357 PRE-SULFIDING AND PRE-CONDITIONING OF RESIDUUM HYDROCONVERSION CATALYSTS FOR EBULLATED-BED HYDROCONVERSION PROCESSES GC0004733 2017/01/22 HTML
128 GC 2013-23805 TREATMENT OF EFFLUENTS FROM PRODUCTION PLANTS OF EPOXY COMPOUNDS GC0004734 2017/01/22 HTML
129 GC 2013-23619 FLOW CONTROL DEVICES ON EXPANDABLE TUBING RUN THROUGH PRODUCTION TUBING AND INTO OPEN HOLE GC0004735 2017/01/22 HTML
130 GC 2011-19401 INTEGRATED DEASPHALTING AND OXIDATIVE REMOVAL OF HETEROATOM HYDROCARBON COMPOUNDS FROM LIQUID HYDROCARBON FEEDSTOCKS GC0004736 2017/01/22 HTML
131 م ت خ/ب/2009/14039 STRUCTURE-INDEPENDENT ANALYSIS OF 3-D SEISMIC RANDOM NOISE GC0004737 2017/01/22 HTML
132 GC 2012-22662 HYDROCRACKING PROCESS WITH INTEGRAL INTERMEDIATE HYDROGEN SEPARATION AND PURIFICATION GC0004738 2017/01/22 HTML
133 GC 2011-18045 IONIC LIQUID DESULFURIZATION PROCESS INCORPORATED IN A CONTACT VESSEL GC0004739 2017/01/22 HTML
134 GC 2012-22664 METHOD AND APPARATUS FOR ARTIFICIAL LIFT USING WELL FLUID ELECTROLYSIS GC0004740 2017/01/22 HTML
135 GC 2012-22284 DUAL PURPOSE OBSERVATION AND PRODUCTION WELL GC0004741 2017/01/22 HTML
136 GC 2011-18308 DIGITAL FRACTIONAL INTEGRATOR GC0004742 2017/01/22 HTML
137 م ت خ/ب/2009/14827 MAINTENANCE DEVICE AND METHOD OF MAKING AN ACCESS FOR MAINTENANCE GC0004743 2017/01/22 HTML
138 م ت خ/ب/2005/13513 TECHNIQUE AND APPARATUS FOR COMPLETING MULTIPLE ZONES GC0004744 2017/01/22 HTML
139 GC 2013-23397 METHOD OF MANUFACTURING UREA FROM REFUSE, PREFERABLY DOMESTIC WASTE, OF ANY COMPOSITION GC0004745 2017/01/22 HTML
140 GC 2010-15371 JOINING APPARATUS AND METHOD OF MANUFACTURING ABSORBENT ARTICLE GC0004746 2017/01/22 HTML
141 GC 2012-22828 SLURRY BED HYDROPROCESSING AND SYSTEM USING FEEDSTOCK CONTAINING DISSOLVED HYDROGEN GC0004747 2017/01/22 HTML
142 GC 2010-16229 ASPHALT PRODUCTION FROM SOLVENT DEASPHALTING BOTTOMS GC0004748 2017/01/22 HTML
143 GC 2011-19541 PROCESS AND PLANT FOR THE PRODUCTION OF METHANOL WITH ISOTHERMAL CATALYTIC BEDS GC0004749 2017/01/22 HTML
144 GC 2012-21049 METHODS AND SYSTEMS FOR ESTIMATING FORMATION RESISTIVITY AND POROSITY GC0004750 2017/01/22 HTML
145 GC 2011-19505 INTEGRATED GAS SPARGER FOR AN IMMERSED MEMBRANE GC0004751 2017/01/22 HTML
146 GC 2011-19797 IMIDAZOLE DERIVATIVES AS PDE10A ENZYME INHIBITORS GC0004752 2017/01/22 HTML
147 GC 2013-25078 APPARATUS AND METHOD FOR COMMINUTING A POLYCRYSTALLINE SILICON ROD GC0004753 2017/01/23 HTML
148 م ت خ/ب/2008/11738 A HIGH THROUGHPUT TEST METHOD FOR EVALUATION OF BIOCIDES AGAINST ANAEROBIC BACTERIA GC0004754 2017/01/23 HTML
149 GC 2012-21486 ELEVATOR GC0004755 2017/01/23 HTML
150 GC 2011-19113 DOUBLE DECK ELEVATOR GC0004756 2017/01/23 HTML
151 GC 2010-15799 METHOD FOR LONGITUDINAL STRETCHING A FILM IN SOLID STATE AND APPARATUS TO CARRY OUT THE METHOD GC0004757 2017/01/24 HTML
152 GC 2012-23036 ITERATIVE DIP-STEERING MEDIAN FILTER FOR SEISMIC DATA PROCESSING GC0004758 2017/01/24 HTML
153 م ت خ/ب/2007/9585 NOVEL CARBONYLATION LIGANDS AND THEIR USE IN THE CARBONYLATION OF ETHYLENICALLY UNSATURATED COMPOUNDS GC0004759 2017/01/24 HTML
154 GC 2010-17485 REACTOR WITH GAS DISTRIBUTION SYSTEM IN BOTTOM GC0004760 2017/01/24 HTML
155 GC 2011-18452 METHODS AND APPARATUS FOR REMOVING FLUID FROM FLUID VALVES GC0004761 2017/01/24 HTML
156 GC 2010-16894 PHOTOLUMINESCENT COMPOSITIONS FOR SPECTRUM CONVERTERS WITH ENHANCED EFFICIENCY GC0004762 2017/01/24 HTML
157 GC 2010-15084 PROCESS FOR THE SEQUENTIAL HYDROCONVERSION AND HYDRODESULFURIZATION OF WHOLE CRUDE OIL GC0004763 2017/01/24 HTML
158 GC 2011-19004 SOLAR CONCENTRATOR WITH SUPPORTING AND SOLAR TRACKING SYSTEM GC0004764 2017/01/24 HTML
159 GC 2012-22093 APPARATUS AND METHODS OF DETERMINING FORMATION RESISTIVITY GC0004766 2017/01/24 HTML
160 م ت خ/ب/2008/12473 AGGREGATE ZEOLITIC ADSORBENTS, THEIR METHOD OF PREPARATION AND THEIR USES GC0004768 2017/01/25 HTML
161 م ت خ/ب/2009/12682 ROPE FOR A HOISTING MACHINE, ELEVATOR AND USE GC0004769 2017/01/25 HTML
162 GC 2011-19327 PROCESS FOR PRODUCTION OF ALLYL ACETATE GC0004770 2017/01/25 HTML
163 GC 2012-21981 COIL WINDING METHODS FOR DOWNHOLE LOGGING TOOLS GC0004771 2017/01/25 HTML
164 GC 2012-22941 PROCESS FOR PROVIDING A VAPOROUS PURIFIED CRUDE C4 CUT AS A USE STREAM FOR AN EXTRACTIVE DISTILLATION WITH A SELECTIVE SOLVENT GC0004772 2017/01/25 HTML
165 GC 2013-23536 ACOUSTIC SYNCHRONIZATION SYSTEM, ASSEMBLY, AND METHOD GC0004773 2017/01/25 HTML
166 GC 2013-24168 MULTI-AXIAL INDUCTION BOREHOLE IMAGER GC0004774 2017/01/25 HTML
167 GC 2013-25445 SYSTEM AND METHOD FOR CIRCUMFERENTIALLY ALIGNING A DOWNHOLE LATCH SUBSYSTEM GC0004776 2017/01/25 HTML
168 GC 2013-25571 METHOD FOR PREPARING A POROUS FLUOROPOLYMER AND PREPARING AN ARTICLE OF SAME GC0004777 2017/01/25 HTML
169 GC 2013-25974 SYSTEMS AND METHODS FOR REAL TIME MONITORING AND MANAGEMENT OF WELLBORE SERVICING FLUIDS GC0004778 2017/01/25 HTML
170 م ت خ/ب/2008/10847 COMPOSITE MATERIAL BASED ON VINYL AROMATIC POLYMERS HAVING ENHANCED THERMAL INSULATION PROPERTIES AND PROCESS FOR THE PREPARATION THEREOF GC0004779 2017/01/25 HTML
171 GC 2010-16043 HYDROCARBON GAS PROCESSING GC0004780 2017/01/25 HTML
172 GC 2012-21420 SAFELY DEPLOYING POWER GC0004781 2017/01/25 HTML
173 GC 2012-22715 PROCESS FOR PURIFYING CRUDE TEREPHTHALIC ACID GC0004782 2017/01/25 HTML
174 GC 2013-23329 A METHOD OF INCREASING EFFICIENCY IN A HYDRAULIC FRACTURING OPERATION GC0004783 2017/01/25 HTML
175 GC 2013-24021 PROCESS FOR PRODUCTION OF HYDROCARBON CHEMICALS FROM CRUDE OIL GC0004784 2017/01/25 HTML
176 GC 2013-24441 PROCESS FOR NON-OXIDATIVE DEHYDROGENATION OF ALKANE GC0004785 2017/01/25 HTML
177 GC 2013-25082 PROCESS FOR CONVERTING HYDROCARBON INPUTS BY THERMAL STEAMCRACKING GC0004786 2017/01/25 HTML
178 GC 2013-25938 FORMATION THERMAL MEASUREMENT APPARATUS, METHODS, AND SYSTEMS GC0004787 2017/01/25 HTML
179 GC 2010-16988 USE OF FERROQUINE IN THE TREATMENT OR PREVENTION OF MALARIA GC0004788 2017/01/25 HTML
180 GC 2010-15224 SEISMIC ACQUISITION SYSTEM AND TECHNIQUE GC0004789 2017/01/25 HTML
181 م ت خ/ب/2009/14507 METHOD OF CONTROLLING GAS HYDRATES IN FLUID SYSTEMS GC0004790 2017/01/25 HTML
182 م ت خ/ب/2008/11496 SYSTEM AND METHOD FOR CONTROLLING A DRILLING SYSTEM FOR DRILLING A BOREHOLE IN AN EARTH FORMATION GC0004791 2017/01/25 HTML
183 GC 2013-24092 FLUIDS AND METHODS INCLUDING NANOCELLULOSE GC0004792 2017/01/25 HTML
184 GC 2013-24356 ADJUSTABLE CONE EXPANSION SYSTEMS AND METHODS GC0004793 2017/01/25 HTML
185 GC 2013-24792 METHOD FOR OLIGOMERIZATION OF ETHYLENE GC0004794 2017/01/25 HTML
186 م ت خ/ب/2008/10024 PROCESS FOR PREPARING ACRYLIC ACID GC0004795 2017/01/25 HTML
187 م ت خ/ب/2009/14149 POLYOLEFIN COMPOSITION FOR MEDIUM/HIGH/EXTRA HIGH VOLTAGE CABLES COMPRISING BENZOPHENONE-TYPE VOLTAGE STABILISER GC0004796 2017/01/25 HTML
188 GC 2011-19950 SWIVEL WITH OR FOR HYDRANT MANIFOLD FOR INDUSTRIAL FIRE FIGHTING GC0004797 2017/01/25 HTML
189 GC 2012-22599 SOLAR PLANT FOR ENHANCED OIL RECOVERY GC0004798 2017/01/25 HTML
190 GC 2012-23125 PROCESS FOR THE PREPARATION OF METALLOCENE COMPLEXES GC0004799 2017/01/25 HTML
191 GC 2013-23636 IMPROVING SHEAR BOND STRENGTH OF SET CEMENT GC0004800 2017/01/25 HTML
192 GC 2013-24173 SOLAR ENERGY BASED COUNTINUOUS PROCESS AND REACTOR SYSTEM FOR THE PRODUCTION OF AN ALKENE BY DEHYDROGENATION OF THE CORRESPONDING ALKANE GC0004801 2017/01/25 HTML
193 GC 2013-25081 PROCESS FOR PREPARING OLEFINS BY THERMAL STEAMCRACKING GC0004802 2017/01/25 HTML
194 GC 2013-25959 SYSTEMS AND METHODS FOR REAL TIME DRILLING FLUID MANAGEMENT GC0004803 2017/01/25 HTML
195 GC 2011-19764 NOISE ATTENUATION IN PASSIVE SEISMIC DATA GC0004804 2017/01/25 HTML
196 GC 2012-23088 PROPYLENE RANDOM COPOLYMER GC0004805 2017/01/26 HTML
197 GC 2012-22393 RESPONSIVELY ACTIVATED WELLBORE STIMULATION ASSEMBLIES AND METHODS OF USING THE SAME GC0004806 2017/01/26 HTML
198 GC 2013-24656 PROCESS FOR THE TREATMENT OF LIQUEFIED HYDROCARBON GAS USING 2-AMINO-2-HYDROXYETHYLPROPANE-1,3-DIOL COMPOUNDS GC0004807 2017/01/26 HTML
199 م ت خ/ب/2008/11773 METHODS OF PREPARING A POLYMERIZATION CATALYST GC0004808 2017/01/26 HTML
200 GC 2012-20580 USE OF MICRO-ELECTRO-MECHANICAL SYSTEMS MEMS IN WELL TREATMENTS GC0004809 2017/01/26 HTML
201 GC 2011-18209 PROCESS FOR CATALYST REGENERATION AND EXTENDED USE GC0004811 2017/01/29 HTML
202 GC 2011-19465 Process for Removing Metals from Hydrocarbons GC0004812 2017/01/29 HTML
203 GC 2011-19659 VOLCANIC ASH-BASED DRILLING MUD TO OVERCOME DRILLING CHALLENGES GC0004814 2017/01/29 HTML
204 GC 2013-24268 PROCESS FOR PREPARING A POLYETHYLENE PRODUCT IN A POLYMERIZATION LOOP REACTOR GC0004815 2017/01/29 HTML
205 GC 2010-15493 PROCESS FOR PRODUCTION OF LUBRICATING BASE OIL GC0004816 2017/01/29 HTML
206 م ت خ/ب/2007/8767 METHOD OF ENHANCING AN AROMATIZATION CATALYST CROSS-REFERENCE TO RELATED APPLICATIONS GC0004818 2017/01/30 HTML
207 م ت خ/ب/2008/10802 POLYOLEFIN DRAG REDUCING AGENTS PRODUCED BY NON-CRYOGENIC GRINDING GC0004819 2017/01/31 HTML
208 GC 2012-21390 MULTI-METALLIC ZIEGLER-NATTA PROCATALYSTS AND CATAYSTS PREPARED THEREFROM FOR OLEFIN POLYMERIZATIONS GC0004820 2017/01/31 HTML
209 م ت خ/ب/2009/12920 DOWNHOLE APPARATUS AND METHOD GC0004821 2017/01/31 HTML
210 GC 2012-22572 WATERPROOFING MEMBRANE GC0004822 2017/01/31 HTML
211 GC 2013-24418 HYBRID SATURATION RECOVERY-INVERSION RECOVERY PULSE SEQUENCE FOR IMPROVED NMR LOGGING OF BOREHOLES GC0004824 2017/01/31 HTML
212 GC 2013-24692 PROCESS TO PRODUCE OIL OR GAS FROM A SUBTERRANEAN FORMATION USING A CHELATING AGENT GC0004825 2017/01/31 HTML
213 GC 2013-25652 REDUCED MAINTENANCE WATER TREATMENT APPARATUS INCORPORATING WET AIR REGENERATION GC0004826 2017/01/31 HTML
214 م ت خ/ب/2008/10593 DESALINATION CONFIGURATION AND METHOD OF GENERATING FRESH WATER GC0004827 2017/01/31 HTML
215 م ت خ/ب/2009/14809 CYCLOPROPYL COMPOUNDS GC0004828 2017/01/31 HTML
216 GC 2012-22180 HOLDING DEVICE FOR SENSORS FOR HIGH-PRESSURE APPLICATIONS GC0004829 2017/01/31 HTML
217 GC 2013-23456 PROCESS FOR PRODUCTION OF VINYL ESTERS GC0004830 2017/01/31 HTML
218 GC 2013-24494 PROCESS FOR SELECTIVELY REMOVING HYDROGEN SULPHIDE FROM GASEOUS MIXTURES AND USE OF A THIOALKANOL FOR SELECTIVELY REMOVING HYDROGEN SULPHIDE GC0004832 2017/01/31 HTML
219 GC 2013-25498 FREQUENCY LOCATION APPARATUS, METHODS, AND SYSTEMS GC0004833 2017/01/31 HTML
220 GC 2013-24327 METHOD OF ABSORBING CO2 FROM A GAS MIXTURE GC0004834 2017/01/31 HTML
221 م ت خ/ب/2005/5065 PROCESS FOR THE PREPARATION OF ALKYLENE GLYCOLS GC0004835 2017/01/31 HTML
222 م ت خ/ب/2008/11795 SYNTHESIS REACTION SYSTEM GC0004836 2017/01/31 HTML
223 GC 2013-24822 USE OF ALKOXYLATED NON-IONIC SURFACTANTS AS ADDITIVE IN AQUEOUS MEMBRANE CLEANING COMPOSITIONS. GC0004840 2017/01/31 HTML
224 م ت خ/ب/2009/14941 METHOD AND SYSTEM FOR PUSHING AND MOVING SOLID WASTE GC0004841 2017/01/31 HTML
225 GC 2012-23135 METHOD AND CONTROL DEVICES FOR PRODUCTION OF CONSISTENT WATER QUALITY FROM MEMBRANE-BASED WATER TREATMENT FOR USE IN IMPROVED HYDROCARBON RECOVERY OPERATIONS GC0004842 2017/01/31 HTML

Fallen Patents

NoPatent NoTitleDecision NoGrant DateDocument
1 GC0004618 SYSTEM AND METHOD FOR LOW DAMAGE FRACTURING 17/90714 2017/01/04
2 GC0004620 APPARATUS AND METHODS FOR RUNNING LINERS IN EXTENDED REACH WELLS 17/90769 2017/01/05
3 GC0004642 HETEROBIARYL-CYCLOHEXYL-TETRAAZABENZO[E]AZULENES 17/91589 2017/01/12
4 GC0004650 METHODS AND SYSTEMS FOR ENERGY EXCHANGE 17/91724 2017/01/16
5 GC0004659 WATER PURIFICATION SYSTEM AND METHOD 17/91802 2017/01/17
6 GC0004671 APPARATUS AND METHOD FOR PROCESSING BAGGED REFUSE 17/91818 2017/01/17
7 GC0004677 PROCESS FOR THE ACTIVATION OF A COPPER-, ZINC- AND ZIRCONIUM OXIDE-COMPRISING ADSORPTION COMPOSITION 17/91825 2017/01/17
8 GC0004683 CONNECTOR ASSEMBLY 17/91841 2017/01/17
9 GC0004692 IMPROVED COMPOSITE SYSTEM FOR PACKAGES 17/92023 2017/01/18
10 GC0004693 POLYMERIC MATERIAL FOR AN INSULATED CONTAINER 17/92024 2017/01/18
11 GC0004694 PROCESS FOR INCREASING THE CARBON MONOXIDE CONTENT OF A SYNGAS MIXTURE 17/92025 2017/01/18
12 GC0004701 PROCESS FOR THE REGENERATION OF A COPPER, ZINC AND ZIRCONIUM OXIDE-COMPRISING ADSORPTION COMPOSITION 17/92032 2017/01/18
13 GC0004720 CATALYTIC HYDROGENATION OF CARBON DIOXIDE INTO SYNGAS MIXTURE 17/92138 2017/01/19
14 GC0004765 VISCOSITY REDUCTION OF VISCOELASTIC SURFACTANT BASED FLUIDS 17/92529 2017/01/24
15 GC0004767 A METHOD AND SYSTEM FOR OPTIMIZING MEMBRANE CLEANING PROCESS 17/92556 2017/01/24
16 GC0004775 PROCESS FOR PRODUCING A SYNTHESIS GAS MIXTURE 17/92637 2017/01/25
17 GC0004810 FACILE SYNTHESIS OF GRAPHENE, GRAPHENE DERIVATIVES AND ABRASIVE NANOPARTICLES AND THEIR VARIOUS USES, INCLUDING AS TRIBOLOGICALLY-BENEFICIAL LUBRICANT ADDITIVES 17/93182 2017/01/26
18 GC0004813 USING PROJECTION ONTO CONVEX SETS TO CONSTRAIN FULL-WAVEFIELD INVERSION 17/93237 2017/01/29
19 GC0004817 COILED TUBING METHOD INCLUDING PRODUCTION TUBING MEMBER WITH AUXILIARY CONDUIT 17/93260 2017/01/29
20 GC0004823 Process for the continuous production of polyetherols 17/93319 2017/01/31
21 GC0004831 SYSTEMS AND METHODS FOR ESTIMATING FLUID BREAKTHROUGH TIMES AT PRODUCING WELL LOCATIONS 17/93331 2017/01/31
22 GC0004837 METHOD OF PARTIALLY UPGRADING HEAVY OIL AT WELL-SITE 17/93343 2017/01/31
23 GC0004838 METHOD FOR THE REMOVAL OR SUPPRESSION OF INTERFERING METAL IONS USING ENVIRONMENTALLY FRIENDLY COMPETITIVE BINDERS 17/93344 2017/01/31
24 GC0004839 METHODS AND SYSTEMS OF MODELING HYDROCARBON FLOW FROM LAYERED SHALE FORMATIONS 17/93345 2017/01/31


 





All Rights Reserved